sensor_id;sensor_type;location;lat;lon;timestamp;pressure;altitude;pressure_sealevel;temperature;humidity
76311;BME280;65120;59.304;18.294;2023-02-02T00:01:09;100094.19;;;0.25;71.34
76311;BME280;65120;59.304;18.294;2023-02-02T00:03:38;100097.66;;;0.27;71.61
76311;BME280;65120;59.304;18.294;2023-02-02T00:06:05;100104.50;;;0.28;70.97
76311;BME280;65120;59.304;18.294;2023-02-02T00:08:33;100101.06;;;0.26;71.25
76311;BME280;65120;59.304;18.294;2023-02-02T00:11:01;100110.47;;;0.26;71.72
76311;BME280;65120;59.304;18.294;2023-02-02T00:13:27;100100.94;;;0.15;71.21
76311;BME280;65120;59.304;18.294;2023-02-02T00:15:55;100120.72;;;0.26;71.03
76311;BME280;65120;59.304;18.294;2023-02-02T00:18:21;100114.72;;;0.24;71.64
76311;BME280;65120;59.304;18.294;2023-02-02T00:20:50;100122.44;;;0.24;71.01
76311;BME280;65120;59.304;18.294;2023-02-02T00:23:18;100124.16;;;0.23;71.88
76311;BME280;65120;59.304;18.294;2023-02-02T00:25:48;100106.81;;;0.08;71.53
76311;BME280;65120;59.304;18.294;2023-02-02T00:28:15;100130.09;;;0.20;71.24
76311;BME280;65120;59.304;18.294;2023-02-02T00:30:42;100136.91;;;0.18;71.49
76311;BME280;65120;59.304;18.294;2023-02-02T00:33:09;100136.06;;;0.19;71.42
76311;BME280;65120;59.304;18.294;2023-02-02T00:35:39;100131.75;;;0.17;71.74
76311;BME280;65120;59.304;18.294;2023-02-02T00:38:08;100141.16;;;0.16;71.18
76311;BME280;65120;59.304;18.294;2023-02-02T00:40:35;100119.56;;;0.02;71.35
76311;BME280;65120;59.304;18.294;2023-02-02T00:43:02;100154.00;;;0.16;71.15
76311;BME280;65120;59.304;18.294;2023-02-02T00:45:29;100150.53;;;0.13;71.47
76311;BME280;65120;59.304;18.294;2023-02-02T00:47:55;100143.56;;;0.04;71.15
76311;BME280;65120;59.304;18.294;2023-02-02T00:50:22;100154.84;;;0.15;71.75
76311;BME280;65120;59.304;18.294;2023-02-02T00:52:50;100163.41;;;0.14;71.19
76311;BME280;65120;59.304;18.294;2023-02-02T00:55:18;100163.41;;;0.14;71.55
76311;BME280;65120;59.304;18.294;2023-02-02T00:57:46;100155.63;;;0.10;71.02
76311;BME280;65120;59.304;18.294;2023-02-02T01:00:16;100163.34;;;0.11;71.94
76311;BME280;65120;59.304;18.294;2023-02-02T01:02:43;100162.53;;;0.12;71.16
76311;BME280;65120;59.304;18.294;2023-02-02T01:05:11;100163.34;;;0.11;71.01
76311;BME280;65120;59.304;18.294;2023-02-02T01:07:38;100167.59;;;0.08;70.68
76311;BME280;65120;59.304;18.294;2023-02-02T01:10:08;100159.78;;;0.00;71.41
76311;BME280;65120;59.304;18.294;2023-02-02T01:12:38;100179.56;;;0.07;71.35
76311;BME280;65120;59.304;18.294;2023-02-02T01:15:06;100182.09;;;0.06;71.20
76311;BME280;65120;59.304;18.294;2023-02-02T01:17:33;100189.78;;;0.04;70.96
76311;BME280;65120;59.304;18.294;2023-02-02T01:20:00;100181.16;;;-0.01;71.37
76311;BME280;65120;59.304;18.294;2023-02-02T01:22:27;100199.22;;;0.04;71.30
76311;BME280;65120;59.304;18.294;2023-02-02T01:24:54;100203.50;;;0.03;70.65
76311;BME280;65120;59.304;18.294;2023-02-02T01:27:21;100200.91;;;0.03;70.42
76311;BME280;65120;59.304;18.294;2023-02-02T01:29:49;100212.88;;;0.03;70.84
76311;BME280;65120;59.304;18.294;2023-02-02T01:32:16;100221.41;;;0.00;71.44
76311;BME280;65120;59.304;18.294;2023-02-02T01:34:43;100219.66;;;-0.01;71.02
76311;BME280;65120;59.304;18.294;2023-02-02T01:37:10;100223.91;;;-0.03;70.81
76311;BME280;65120;59.304;18.294;2023-02-02T01:39:37;100227.28;;;-0.07;71.06
76311;BME280;65120;59.304;18.294;2023-02-02T01:42:11;100226.41;;;-0.08;70.81
76311;BME280;65120;59.304;18.294;2023-02-02T01:45:12;100229.81;;;-0.10;70.49
76311;BME280;65120;59.304;18.294;2023-02-02T01:47:42;100231.47;;;-0.14;70.67
76311;BME280;65120;59.304;18.294;2023-02-02T01:50:13;100234.84;;;-0.16;71.08
76311;BME280;65120;59.304;18.294;2023-02-02T01:52:42;100241.66;;;-0.18;70.60
76311;BME280;65120;59.304;18.294;2023-02-02T01:55:13;100248.44;;;-0.20;70.76
76311;BME280;65120;59.304;18.294;2023-02-02T01:57:44;100250.16;;;-0.22;70.37
76311;BME280;65120;59.304;18.294;2023-02-02T02:00:15;100262.09;;;-0.25;70.98
76311;BME280;65120;59.304;18.294;2023-02-02T02:02:45;100271.44;;;-0.28;70.95
76311;BME280;65120;59.304;18.294;2023-02-02T02:05:17;100267.97;;;-0.29;70.67
76311;BME280;65120;59.304;18.294;2023-02-02T02:07:48;100268.81;;;-0.31;70.70
76311;BME280;65120;59.304;18.294;2023-02-02T02:10:16;100279.03;;;-0.33;70.72
76311;BME280;65120;59.304;18.294;2023-02-02T02:12:43;100276.44;;;-0.34;70.57
76311;BME280;65120;59.304;18.294;2023-02-02T02:15:10;100284.97;;;-0.37;70.58
76311;BME280;65120;59.304;18.294;2023-02-02T02:18:05;100291.72;;;-0.40;70.13
76311;BME280;65120;59.304;18.294;2023-02-02T02:21:03;100298.56;;;-0.42;70.86
76311;BME280;65120;59.304;18.294;2023-02-02T02:24:18;100298.50;;;-0.46;70.59
76311;BME280;65120;59.304;18.294;2023-02-02T02:30:40;100311.13;;;-0.56;70.32
76311;BME280;65120;59.304;18.294;2023-02-02T02:33:24;100324.00;;;-0.53;70.14
76311;BME280;65120;59.304;18.294;2023-02-02T02:35:57;100330.78;;;-0.57;70.64
76311;BME280;65120;59.304;18.294;2023-02-02T02:38:34;100331.53;;;-0.61;70.30
76311;BME280;65120;59.304;18.294;2023-02-02T02:41:07;100335.78;;;-0.63;70.56
76311;BME280;65120;59.304;18.294;2023-02-02T02:43:39;100343.44;;;-0.64;70.32
76311;BME280;65120;59.304;18.294;2023-02-02T02:46:08;100345.97;;;-0.66;69.76
76311;BME280;65120;59.304;18.294;2023-02-02T02:48:37;100347.66;;;-0.68;69.84
76311;BME280;65120;59.304;18.294;2023-02-02T02:51:05;100343.28;;;-0.72;70.15
76311;BME280;65120;59.304;18.294;2023-02-02T02:53:33;100353.53;;;-0.74;70.24
76311;BME280;65120;59.304;18.294;2023-02-02T02:56:08;100351.78;;;-0.75;70.00
76311;BME280;65120;59.304;18.294;2023-02-02T02:58:43;100361.97;;;-0.78;70.39
76311;BME280;65120;59.304;18.294;2023-02-02T03:01:17;100352.50;;;-0.82;70.06
76311;BME280;65120;59.304;18.294;2023-02-02T03:04:00;100361.84;;;-0.84;69.89
76311;BME280;65120;59.304;18.294;2023-02-02T03:06:36;100365.22;;;-0.88;69.91
76311;BME280;65120;59.304;18.294;2023-02-02T03:09:08;100371.94;;;-0.92;70.46
76311;BME280;65120;59.304;18.294;2023-02-02T03:11:36;100375.31;;;-0.94;69.89
76311;BME280;65120;59.304;18.294;2023-02-02T03:14:03;100369.97;;;-1.03;70.15
76311;BME280;65120;59.304;18.294;2023-02-02T03:16:34;100387.13;;;-1.01;69.96
76311;BME280;65120;59.304;18.294;2023-02-02T03:19:03;100395.63;;;-1.03;70.27
76311;BME280;65120;59.304;18.294;2023-02-02T03:21:31;100398.09;;;-1.08;69.94
76311;BME280;65120;59.304;18.294;2023-02-02T03:23:58;100398.03;;;-1.11;70.27
76311;BME280;65120;59.304;18.294;2023-02-02T03:26:25;100409.06;;;-1.14;70.03
76311;BME280;65120;59.304;18.294;2023-02-02T03:28:54;100411.59;;;-1.15;69.61
76311;BME280;65120;59.304;18.294;2023-02-02T03:31:22;100414.00;;;-1.21;69.47
76311;BME280;65120;59.304;18.294;2023-02-02T03:33:51;100423.41;;;-1.22;69.82
76311;BME280;65120;59.304;18.294;2023-02-02T03:36:19;100430.13;;;-1.25;69.89
76311;BME280;65120;59.304;18.294;2023-02-02T03:38:46;100430.09;;;-1.27;70.25
76311;BME280;65120;59.304;18.294;2023-02-02T03:41:13;100437.78;;;-1.27;70.15
76311;BME280;65120;59.304;18.294;2023-02-02T03:43:40;100444.63;;;-1.27;70.37
76311;BME280;65120;59.304;18.294;2023-02-02T03:46:07;100435.91;;;-1.34;70.25
76311;BME280;65120;59.304;18.294;2023-02-02T03:48:35;100445.44;;;-1.28;70.21
76311;BME280;65120;59.304;18.294;2023-02-02T03:51:05;100450.56;;;-1.28;70.40
76311;BME280;65120;59.304;18.294;2023-02-02T03:53:33;100459.94;;;-1.29;70.11
76311;BME280;65120;59.304;18.294;2023-02-02T03:56:00;100464.22;;;-1.29;70.54
76311;BME280;65120;59.304;18.294;2023-02-02T03:58:27;100456.41;;;-1.34;70.25
76311;BME280;65120;59.304;18.294;2023-02-02T04:00:58;100470.19;;;-1.29;70.58
76311;BME280;65120;59.304;18.294;2023-02-02T04:03:27;100475.31;;;-1.29;70.37
76311;BME280;65120;59.304;18.294;2023-02-02T04:05:54;100477.88;;;-1.29;69.96
76311;BME280;65120;59.304;18.294;2023-02-02T04:08:21;100475.31;;;-1.29;70.65
76311;BME280;65120;59.304;18.294;2023-02-02T04:10:49;100483.00;;;-1.29;70.30
76311;BME280;65120;59.304;18.294;2023-02-02T04:13:16;100489.88;;;-1.28;70.22
76311;BME280;65120;59.304;18.294;2023-02-02T04:15:43;100482.03;;;-1.34;70.19
76311;BME280;65120;59.304;18.294;2023-02-02T04:18:10;100505.28;;;-1.26;70.80
76311;BME280;65120;59.304;18.294;2023-02-02T04:20:37;100509.56;;;-1.25;70.79
76311;BME280;65120;59.304;18.294;2023-02-02T04:23:03;100514.69;;;-1.25;70.11
76311;BME280;65120;59.304;18.294;2023-02-02T04:25:30;100516.44;;;-1.24;70.64
76311;BME280;65120;59.304;18.294;2023-02-02T04:27:59;100525.00;;;-1.24;70.61
76311;BME280;65120;59.304;18.294;2023-02-02T04:30:25;100521.59;;;-1.23;70.75
76311;BME280;65120;59.304;18.294;2023-02-02T04:32:53;100519.94;;;-1.22;70.45
76311;BME280;65120;59.304;18.294;2023-02-02T04:35:20;100520.81;;;-1.20;70.50
76311;BME280;65120;59.304;18.294;2023-02-02T04:37:47;100515.69;;;-1.20;70.69
76311;BME280;65120;59.304;18.294;2023-02-02T04:40:14;100536.25;;;-1.19;70.42
76311;BME280;65120;59.304;18.294;2023-02-02T04:42:41;100542.22;;;-1.18;70.70
76311;BME280;65120;59.304;18.294;2023-02-02T04:45:11;100542.28;;;-1.17;70.74
76311;BME280;65120;59.304;18.294;2023-02-02T04:47:38;100538.72;;;-1.22;70.87
76311;BME280;65120;59.304;18.294;2023-02-02T04:50:06;100549.13;;;-1.16;70.67
76311;BME280;65120;59.304;18.294;2023-02-02T04:52:33;100549.88;;;-1.20;70.78
76311;BME280;65120;59.304;18.294;2023-02-02T04:55:00;100561.09;;;-1.15;70.47
76311;BME280;65120;59.304;18.294;2023-02-02T04:57:27;100573.13;;;-1.14;70.38
76311;BME280;65120;59.304;18.294;2023-02-02T04:59:53;100579.91;;;-1.14;70.90
76311;BME280;65120;59.304;18.294;2023-02-02T05:02:22;100579.09;;;-1.13;70.42
76311;BME280;65120;59.304;18.294;2023-02-02T05:04:48;100585.09;;;-1.13;70.65
76311;BME280;65120;59.304;18.294;2023-02-02T05:07:15;100591.91;;;-1.13;70.43
76311;BME280;65120;59.304;18.294;2023-02-02T05:09:42;100595.34;;;-1.13;70.91
76311;BME280;65120;59.304;18.294;2023-02-02T05:12:09;100595.34;;;-1.13;70.37
76311;BME280;65120;59.304;18.294;2023-02-02T05:14:36;100600.47;;;-1.13;70.38
76311;BME280;65120;59.304;18.294;2023-02-02T05:17:03;100607.25;;;-1.15;70.80
76311;BME280;65120;59.304;18.294;2023-02-02T05:19:31;100611.59;;;-1.12;70.87
76311;BME280;65120;59.304;18.294;2023-02-02T05:21:58;100613.28;;;-1.13;70.95
76311;BME280;65120;59.304;18.294;2023-02-02T05:24:24;100617.56;;;-1.11;70.64
76311;BME280;65120;59.304;18.294;2023-02-02T05:26:52;100616.75;;;-1.10;70.24
76311;BME280;65120;59.304;18.294;2023-02-02T05:29:22;100622.63;;;-1.15;69.95
76311;BME280;65120;59.304;18.294;2023-02-02T05:31:49;100616.75;;;-1.10;70.47
76311;BME280;65120;59.304;18.294;2023-02-02T05:34:16;100627.81;;;-1.11;69.98
76311;BME280;65120;59.304;18.294;2023-02-02T05:36:45;100630.38;;;-1.11;70.52
76311;BME280;65120;59.304;18.294;2023-02-02T05:39:12;100631.88;;;-1.20;70.43
76311;BME280;65120;59.304;18.294;2023-02-02T05:41:39;100644.91;;;-1.12;70.40
76311;BME280;65120;59.304;18.294;2023-02-02T05:44:08;100656.81;;;-1.14;70.37
76311;BME280;65120;59.304;18.294;2023-02-02T05:46:35;100657.66;;;-1.15;70.42
76311;BME280;65120;59.304;18.294;2023-02-02T05:49:02;100663.59;;;-1.16;70.62
76311;BME280;65120;59.304;18.294;2023-02-02T05:51:31;100671.31;;;-1.16;70.00
76311;BME280;65120;59.304;18.294;2023-02-02T05:54:01;100665.31;;;-1.17;69.97
76311;BME280;65120;59.304;18.294;2023-02-02T05:56:28;100678.94;;;-1.18;70.58
76311;BME280;65120;59.304;18.294;2023-02-02T05:58:55;100678.00;;;-1.21;70.04
76311;BME280;65120;59.304;18.294;2023-02-02T06:01:22;100689.19;;;-1.18;70.00
76311;BME280;65120;59.304;18.294;2023-02-02T06:03:49;100685.69;;;-1.20;70.29
76311;BME280;65120;59.304;18.294;2023-02-02T06:06:15;100693.38;;;-1.21;69.94
76311;BME280;65120;59.304;18.294;2023-02-02T06:08:42;100687.28;;;-1.25;69.96
76311;BME280;65120;59.304;18.294;2023-02-02T06:11:12;100698.44;;;-1.23;70.22
76311;BME280;65120;59.304;18.294;2023-02-02T06:13:39;100708.66;;;-1.24;70.26
76311;BME280;65120;59.304;18.294;2023-02-02T06:16:06;100711.16;;;-1.26;69.37
76311;BME280;65120;59.304;18.294;2023-02-02T06:18:34;100683.28;;;-1.45;70.25
76311;BME280;65120;59.304;18.294;2023-02-02T06:21:03;100711.06;;;-1.29;69.67
76311;BME280;65120;59.304;18.294;2023-02-02T06:23:32;100718.69;;;-1.32;69.88
76311;BME280;65120;59.304;18.294;2023-02-02T06:25:59;100728.13;;;-1.31;70.02
76311;BME280;65120;59.304;18.294;2023-02-02T06:28:29;100728.00;;;-1.34;69.50
76311;BME280;65120;59.304;18.294;2023-02-02T06:31:02;100733.09;;;-1.36;70.37
76311;BME280;65120;59.304;18.294;2023-02-02T06:33:30;100741.56;;;-1.38;69.54
76311;BME280;65120;59.304;18.294;2023-02-02T06:35:58;100750.09;;;-1.39;69.90
76311;BME280;65120;59.304;18.294;2023-02-02T06:38:25;100748.31;;;-1.42;69.60
76311;BME280;65120;59.304;18.294;2023-02-02T06:40:52;100755.94;;;-1.43;69.82
76311;BME280;65120;59.304;18.294;2023-02-02T06:43:18;100752.44;;;-1.45;70.03
76311;BME280;65120;59.304;18.294;2023-02-02T06:45:47;100762.66;;;-1.47;69.76
76311;BME280;65120;59.304;18.294;2023-02-02T06:48:14;100746.94;;;-1.59;69.48
76311;BME280;65120;59.304;18.294;2023-02-02T06:50:40;100773.63;;;-1.51;69.97
76311;BME280;65120;59.304;18.294;2023-02-02T06:53:07;100775.31;;;-1.51;69.95
76311;BME280;65120;59.304;18.294;2023-02-02T06:55:34;100784.63;;;-1.55;69.94
76311;BME280;65120;59.304;18.294;2023-02-02T06:58:01;100787.25;;;-1.53;69.85
76311;BME280;65120;59.304;18.294;2023-02-02T07:00:29;100790.59;;;-1.54;70.16
76311;BME280;65120;59.304;18.294;2023-02-02T07:02:57;100790.59;;;-1.54;70.19
76311;BME280;65120;59.304;18.294;2023-02-02T07:05:26;100800.84;;;-1.54;70.31
76311;BME280;65120;59.304;18.294;2023-02-02T07:07:54;100799.13;;;-1.55;69.74
76311;BME280;65120;59.304;18.294;2023-02-02T07:10:21;100808.50;;;-1.56;70.24
76311;BME280;65120;59.304;18.294;2023-02-02T07:12:47;100811.94;;;-1.55;70.50
76311;BME280;65120;59.304;18.294;2023-02-02T07:15:14;100819.63;;;-1.55;70.38
76311;BME280;65120;59.304;18.294;2023-02-02T07:17:41;100818.75;;;-1.56;70.21
76311;BME280;65120;59.304;18.294;2023-02-02T07:20:10;100820.47;;;-1.55;70.32
76311;BME280;65120;59.304;18.294;2023-02-02T07:22:37;100821.34;;;-1.54;70.29
76311;BME280;65120;59.304;18.294;2023-02-02T07:25:05;100829.09;;;-1.53;70.48
76311;BME280;65120;59.304;18.294;2023-02-02T07:27:32;100834.22;;;-1.53;70.51
76311;BME280;65120;59.304;18.294;2023-02-02T07:29:59;100833.34;;;-1.53;70.19
76311;BME280;65120;59.304;18.294;2023-02-02T07:32:26;100838.47;;;-1.53;70.22
76311;BME280;65120;59.304;18.294;2023-02-02T07:34:53;100847.03;;;-1.53;70.28
76311;BME280;65120;59.304;18.294;2023-02-02T07:37:21;100841.91;;;-1.53;70.18
76311;BME280;65120;59.304;18.294;2023-02-02T07:39:48;100858.06;;;-1.54;70.20
76311;BME280;65120;59.304;18.294;2023-02-02T07:42:15;100854.72;;;-1.53;69.80
76311;BME280;65120;59.304;18.294;2023-02-02T07:44:42;100856.25;;;-1.58;70.37
76311;BME280;65120;59.304;18.294;2023-02-02T07:47:09;100860.69;;;-1.52;70.56
76311;BME280;65120;59.304;18.294;2023-02-02T07:49:35;100871.78;;;-1.53;70.28
76311;BME280;65120;59.304;18.294;2023-02-02T07:52:02;100870.94;;;-1.52;70.44
76311;BME280;65120;59.304;18.294;2023-02-02T07:54:31;100869.22;;;-1.53;70.54
76311;BME280;65120;59.304;18.294;2023-02-02T07:56:57;100878.63;;;-1.52;70.50
76311;BME280;65120;59.304;18.294;2023-02-02T07:59:26;100888.81;;;-1.54;70.43
76311;BME280;65120;59.304;18.294;2023-02-02T08:01:53;100897.41;;;-1.52;70.46
76311;BME280;65120;59.304;18.294;2023-02-02T08:04:20;100895.53;;;-1.58;70.43
76311;BME280;65120;59.304;18.294;2023-02-02T08:06:47;100913.72;;;-1.50;70.50
76311;BME280;65120;59.304;18.294;2023-02-02T08:09:14;100908.44;;;-1.54;70.47
76311;BME280;65120;59.304;18.294;2023-02-02T08:11:42;100924.84;;;-1.49;70.24
76311;BME280;65120;59.304;18.294;2023-02-02T08:14:11;100931.59;;;-1.51;70.33
76311;BME280;65120;59.304;18.294;2023-02-02T08:16:38;100932.41;;;-1.52;70.69
76311;BME280;65120;59.304;18.294;2023-02-02T08:19:05;100942.84;;;-1.48;70.56
76311;BME280;65120;59.304;18.294;2023-02-02T08:21:32;100946.25;;;-1.47;70.40
76311;BME280;65120;59.304;18.294;2023-02-02T08:23:59;100959.09;;;-1.46;70.55
76311;BME280;65120;59.304;18.294;2023-02-02T08:26:28;100956.59;;;-1.44;70.34
76311;BME280;65120;59.304;18.294;2023-02-02T08:28:58;100968.59;;;-1.43;70.17
76311;BME280;65120;59.304;18.294;2023-02-02T08:31:27;100972.06;;;-1.41;69.92
76311;BME280;65120;59.304;18.294;2023-02-02T08:33:55;100958.97;;;-1.50;70.33
76311;BME280;65120;59.304;18.294;2023-02-02T08:36:24;100955.56;;;-1.49;70.24
76311;BME280;65120;59.304;18.294;2023-02-02T08:38:51;100977.31;;;-1.38;70.27
76311;BME280;65120;59.304;18.294;2023-02-02T08:41:20;100979.00;;;-1.39;70.03
76311;BME280;65120;59.304;18.294;2023-02-02T08:43:47;100953.78;;;-1.52;70.11
76311;BME280;65120;59.304;18.294;2023-02-02T08:46:17;100968.78;;;-1.37;70.43
76311;BME280;65120;59.304;18.294;2023-02-02T08:48:44;100979.09;;;-1.36;69.95
76311;BME280;65120;59.304;18.294;2023-02-02T08:51:14;100985.16;;;-1.33;70.26
76311;BME280;65120;59.304;18.294;2023-02-02T08:53:41;100957.22;;;-1.51;70.38
76311;BME280;65120;59.304;18.294;2023-02-02T08:56:10;100996.28;;;-1.33;69.93
76311;BME280;65120;59.304;18.294;2023-02-02T08:58:37;101003.13;;;-1.32;70.13
76311;BME280;65120;59.304;18.294;2023-02-02T09:01:06;100997.88;;;-1.37;69.68
76311;BME280;65120;59.304;18.294;2023-02-02T09:03:36;101018.50;;;-1.32;69.86
76311;BME280;65120;59.304;18.294;2023-02-02T09:06:06;100996.75;;;-1.45;70.02
76311;BME280;65120;59.304;18.294;2023-02-02T09:08:33;101000.09;;;-1.46;69.70
76311;BME280;65120;59.304;18.294;2023-02-02T09:11:04;101031.13;;;-1.38;69.65
76311;BME280;65120;59.304;18.294;2023-02-02T09:13:32;101043.25;;;-1.32;69.72
76311;BME280;65120;59.304;18.294;2023-02-02T09:15:59;101044.03;;;-1.35;69.28
76311;BME280;65120;59.304;18.294;2023-02-02T09:18:26;101048.31;;;-1.34;69.61
76311;BME280;65120;59.304;18.294;2023-02-02T09:20:58;101052.66;;;-1.33;69.22
76311;BME280;65120;59.304;18.294;2023-02-02T09:23:25;101062.03;;;-1.33;69.68
76311;BME280;65120;59.304;18.294;2023-02-02T09:25:54;101061.13;;;-1.34;69.13
76311;BME280;65120;59.304;18.294;2023-02-02T09:28:21;101066.25;;;-1.34;69.48
76311;BME280;65120;59.304;18.294;2023-02-02T09:30:48;101047.03;;;-1.47;69.63
76311;BME280;65120;59.304;18.294;2023-02-02T09:33:15;101067.09;;;-1.35;69.11
76311;BME280;65120;59.304;18.294;2023-02-02T09:35:42;101067.09;;;-1.35;69.19
76311;BME280;65120;59.304;18.294;2023-02-02T09:38:10;101085.03;;;-1.35;68.96
76311;BME280;65120;59.304;18.294;2023-02-02T09:40:39;101045.97;;;-1.53;69.39
76311;BME280;65120;59.304;18.294;2023-02-02T09:43:18;101073.84;;;-1.37;69.07
76311;BME280;65120;59.304;18.294;2023-02-02T09:45:53;101085.03;;;-1.35;69.47
76311;BME280;65120;59.304;18.294;2023-02-02T09:48:30;101039.59;;;-1.65;69.42
76311;BME280;65120;59.304;18.294;2023-02-02T09:51:05;101093.56;;;-1.36;68.86
76311;BME280;65120;59.304;18.294;2023-02-02T09:53:41;101043.91;;;-1.64;69.32
76311;BME280;65120;59.304;18.294;2023-02-02T09:56:11;101096.22;;;-1.33;68.97
76311;BME280;65120;59.304;18.294;2023-02-02T09:58:47;101098.78;;;-1.33;69.37
76311;BME280;65120;59.304;18.294;2023-02-02T10:01:18;101095.28;;;-1.35;68.87
76311;BME280;65120;59.304;18.294;2023-02-02T10:03:56;101084.53;;;-1.49;68.94
76311;BME280;65120;59.304;18.294;2023-02-02T10:06:29;101108.97;;;-1.34;69.05
76311;BME280;65120;59.304;18.294;2023-02-02T10:09:07;101109.03;;;-1.33;68.93
76311;BME280;65120;59.304;18.294;2023-02-02T10:11:48;101121.00;;;-1.32;69.06
76311;BME280;65120;59.304;18.294;2023-02-02T10:14:17;101122.72;;;-1.32;68.86
76311;BME280;65120;59.304;18.294;2023-02-02T10:16:46;101138.16;;;-1.31;69.12
76311;BME280;65120;59.304;18.294;2023-02-02T10:19:15;101135.63;;;-1.29;68.90
76311;BME280;65120;59.304;18.294;2023-02-02T10:21:46;101146.75;;;-1.29;68.92
76311;BME280;65120;59.304;18.294;2023-02-02T10:24:18;101143.38;;;-1.28;69.15
76311;BME280;65120;59.304;18.294;2023-02-02T10:26:48;101132.97;;;-1.32;69.07
76311;BME280;65120;59.304;18.294;2023-02-02T10:29:31;101142.44;;;-1.30;68.75
76311;BME280;65120;59.304;18.294;2023-02-02T10:32:08;101143.50;;;-1.25;68.93
76311;BME280;65120;59.304;18.294;2023-02-02T10:34:40;101147.69;;;-1.27;68.90
76311;BME280;65120;59.304;18.294;2023-02-02T10:37:19;101149.59;;;-1.21;68.82
76311;BME280;65120;59.304;18.294;2023-02-02T10:40:04;101153.88;;;-1.20;68.78
76311;BME280;65120;59.304;18.294;2023-02-02T10:42:45;101158.09;;;-1.22;68.81
76311;BME280;65120;59.304;18.294;2023-02-02T10:45:37;101155.53;;;-1.22;68.88
76311;BME280;65120;59.304;18.294;2023-02-02T10:48:12;101155.41;;;-1.25;68.50
76311;BME280;65120;59.304;18.294;2023-02-02T10:50:42;101169.44;;;-1.16;68.45
76311;BME280;65120;59.304;18.294;2023-02-02T10:53:12;101171.19;;;-1.15;68.58
76311;BME280;65120;59.304;18.294;2023-02-02T10:55:44;101169.44;;;-1.16;68.82
76311;BME280;65120;59.304;18.294;2023-02-02T10:58:21;101172.94;;;-1.14;68.61
76311;BME280;65120;59.304;18.294;2023-02-02T11:00:52;101167.72;;;-1.17;68.32
76311;BME280;65120;59.304;18.294;2023-02-02T11:03:22;101177.25;;;-1.13;68.54
76311;BME280;65120;59.304;18.294;2023-02-02T11:05:50;101178.97;;;-1.11;68.36
76311;BME280;65120;59.304;18.294;2023-02-02T11:08:37;101190.06;;;-1.13;67.98
76311;BME280;65120;59.304;18.294;2023-02-02T11:11:11;101186.66;;;-1.11;68.67
76311;BME280;65120;59.304;18.294;2023-02-02T11:13:46;101196.97;;;-1.10;68.18
76311;BME280;65120;59.304;18.294;2023-02-02T11:16:24;101193.59;;;-1.09;68.36
76311;BME280;65120;59.304;18.294;2023-02-02T11:18:52;101204.03;;;-1.04;68.63
76311;BME280;65120;59.304;18.294;2023-02-02T11:21:23;101209.19;;;-1.03;68.78
76311;BME280;65120;59.304;18.294;2023-02-02T11:23:53;101205.88;;;-1.00;68.50
76311;BME280;65120;59.304;18.294;2023-02-02T11:26:23;101207.53;;;-1.02;67.90
76311;BME280;65120;59.304;18.294;2023-02-02T11:28:51;101214.50;;;-0.98;67.59
76311;BME280;65120;59.304;18.294;2023-02-02T11:31:30;101221.47;;;-0.94;68.15
76311;BME280;65120;59.304;18.294;2023-02-02T11:34:08;101221.47;;;-0.94;67.72
76311;BME280;65120;59.304;18.294;2023-02-02T11:36:35;101218.84;;;-0.96;68.35
76311;BME280;65120;59.304;18.294;2023-02-02T11:39:14;101226.72;;;-0.91;67.63
76311;BME280;65120;59.304;18.294;2023-02-02T11:41:43;101237.09;;;-0.88;68.39
76311;BME280;65120;59.304;18.294;2023-02-02T11:44:19;101248.25;;;-0.86;67.94
76311;BME280;65120;59.304;18.294;2023-02-02T11:46:50;101242.22;;;-0.88;68.08
76311;BME280;65120;59.304;18.294;2023-02-02T11:49:19;101244.78;;;-0.88;68.25
76311;BME280;65120;59.304;18.294;2023-02-02T11:51:55;101242.31;;;-0.85;67.44
76311;BME280;65120;59.304;18.294;2023-02-02T11:54:26;101234.28;;;-0.94;67.09
76311;BME280;65120;59.304;18.294;2023-02-02T11:56:58;101255.19;;;-0.83;67.41
76311;BME280;65120;59.304;18.294;2023-02-02T11:59:30;101262.09;;;-0.82;67.57
76311;BME280;65120;59.304;18.294;2023-02-02T12:02:21;101257.06;;;-0.79;67.41
76311;BME280;65120;59.304;18.294;2023-02-02T12:04:50;101252.63;;;-0.83;67.25
76311;BME280;65120;59.304;18.294;2023-02-02T12:07:20;101256.06;;;-0.83;67.53
76311;BME280;65120;59.304;18.294;2023-02-02T12:09:49;101252.63;;;-0.83;67.38
76311;BME280;65120;59.304;18.294;2023-02-02T12:12:32;101264.66;;;-0.82;68.18
76311;BME280;65120;59.304;18.294;2023-02-02T12:15:08;101242.91;;;-0.92;67.21
76311;BME280;65120;59.304;18.294;2023-02-02T12:17:39;101260.22;;;-0.86;67.73
76311;BME280;65120;59.304;18.294;2023-02-02T12:20:21;101259.34;;;-0.87;67.70
76311;BME280;65120;59.304;18.294;2023-02-02T12:23:28;101274.78;;;-0.85;67.86
76311;BME280;65120;59.304;18.294;2023-02-02T12:26:19;101280.81;;;-0.85;66.90
76311;BME280;65120;59.304;18.294;2023-02-02T12:29:12;101284.22;;;-0.84;67.28
76311;BME280;65120;59.304;18.294;2023-02-02T12:31:59;101279.09;;;-0.84;67.34
76311;BME280;65120;59.304;18.294;2023-02-02T12:34:35;101283.38;;;-0.85;67.51
76311;BME280;65120;59.304;18.294;2023-02-02T12:37:14;101284.22;;;-0.84;67.03
76311;BME280;65120;59.304;18.294;2023-02-02T12:39:52;101285.00;;;-0.87;67.38
76311;BME280;65120;59.304;18.294;2023-02-02T12:42:39;101290.16;;;-0.85;67.44
76311;BME280;65120;59.304;18.294;2023-02-02T12:45:24;101291.75;;;-0.89;67.25
76311;BME280;65120;59.304;18.294;2023-02-02T12:48:06;101287.28;;;-0.95;67.22
76311;BME280;65120;59.304;18.294;2023-02-02T12:50:42;101302.13;;;-0.86;67.10
76311;BME280;65120;59.304;18.294;2023-02-02T12:53:34;101299.63;;;-0.84;67.19
76311;BME280;65120;59.304;18.294;2023-02-02T12:56:10;101291.84;;;-0.86;67.33
76311;BME280;65120;59.304;18.294;2023-02-02T12:58:45;101298.75;;;-0.85;67.05
76311;BME280;65120;59.304;18.294;2023-02-02T13:01:26;101306.38;;;-0.86;66.95